Terminal Aerodrome Forecast
Issued by NWS

Home | Current Version | Previous Version | Text Only | Print | Product List | Glossary On
Versions: 1 2 3 4 5 6 7 8 9 10 11 12 13 14 15 16 17 18 19 20 21 22
000
FTUS44 KMAF 172300
TAFCNM
TAF
KCNM 172320Z 1800/1824 05004KT P6SM -SHRA SCT040 BKN100
      TEMPO 1800/1804 VRB15G25KT 3SM -TSRA BR BKN030CB
     FM180400 13006KT P6SM BKN060=

USA.gov is the U.S. government's official web portal to all federal, state and local government web resources and services.